Time;durP1;ratioP1;P1;durP2;ratioP2;P2;SDS_P1;SDS_P2;PMS_P1;PMS_P2;Temp;Humidity;BMP_temperature;BMP_pressure;BME280_temperature;BME280_humidity;BME280_pressure;Samples;Min_cycle;Max_cycle;Signal;HPM_P1;HPM_P2
2022/11/21 00:00:31;;;;;;;0.10;0.10;;;;;;;;;;1761303;28;20228;-70
2022/11/21 00:01:24;;;;;;;0.10;0.10;;;;;;;;;;1754324;28;20269;-69
2022/11/21 00:02:15;;;;;;;0.30;0.30;;;;;;;;;;1759867;28;20669;-69
2022/11/21 00:03:07;;;;;;;0.10;0.10;;;;;;;;;;1754902;28;20193;-69
2022/11/21 00:03:58;;;;;;;0.10;0.10;;;;;;;;;;1758353;28;20197;-69
2022/11/21 00:04:50;;;;;;;0.10;0.10;;;;;;;;;;1758135;28;20208;-69
2022/11/21 00:05:42;;;;;;;0.10;0.10;;;;;;;;;;1761858;28;20646;-69
2022/11/21 00:06:34;;;;;;;0.00;0.00;;;;;;;;;;1761626;28;20200;-69
2022/11/21 00:07:26;;;;;;;0.10;0.10;;;;;;;;;;1761454;28;20237;-69
2022/11/21 00:08:20;;;;;;;0.20;0.20;;;;;;;;;;1761585;28;20226;-69
2022/11/21 00:09:11;;;;;;;0.05;0.05;;;;;;;;;;1761501;28;20205;-69
2022/11/21 00:10:06;;;;;;;0.10;0.10;;;;;;;;;;1761043;28;20224;-69
2022/11/21 00:10:58;;;;;;;0.10;0.10;;;;;;;;;;1761420;28;20221;-69
2022/11/21 00:11:51;;;;;;;0.10;0.10;;;;;;;;;;1760685;28;20556;-69
2022/11/21 00:12:42;;;;;;;0.30;0.30;;;;;;;;;;1761319;28;20271;-69
2022/11/21 00:13:34;;;;;;;0.08;0.08;;;;;;;;;;1757495;28;20197;-69
2022/11/21 00:14:26;;;;;;;0.08;0.08;;;;;;;;;;1756876;28;20656;-69
2022/11/21 00:15:18;;;;;;;0.10;0.10;;;;;;;;;;1761404;28;20201;-69
2022/11/21 00:16:10;;;;;;;0.05;0.05;;;;;;;;;;1761182;28;20326;-69
2022/11/21 00:17:02;;;;;;;0.10;0.10;;;;;;;;;;1761100;28;20235;-69
2022/11/21 00:17:53;;;;;;;0.10;0.10;;;;;;;;;;1761219;28;20213;-69
2022/11/21 00:18:45;;;;;;;0.20;0.20;;;;;;;;;;1760894;28;20201;-69
2022/11/21 00:19:36;;;;;;;0.10;0.10;;;;;;;;;;1761269;28;20538;-69
2022/11/21 00:20:27;;;;;;;0.00;0.00;;;;;;;;;;1761108;28;20197;-69
2022/11/21 00:21:20;;;;;;;0.10;0.10;;;;;;;;;;1761188;28;20193;-69
2022/11/21 00:22:11;;;;;;;0.00;0.00;;;;;;;;;;1760498;28;20238;-69
2022/11/21 00:23:03;;;;;;;0.10;0.10;;;;;;;;;;1761123;28;20229;-69
2022/11/21 00:23:56;;;;;;;0.10;0.10;;;;;;;;;;1760844;28;20596;-69
2022/11/21 00:24:48;;;;;;;0.10;0.10;;;;;;;;;;1761236;28;20596;-69
2022/11/21 00:25:39;;;;;;;0.00;0.00;;;;;;;;;;1761286;28;20228;-69
2022/11/21 00:26:31;;;;;;;0.10;0.10;;;;;;;;;;1760929;28;20246;-69
2022/11/21 00:27:22;;;;;;;0.10;0.10;;;;;;;;;;1761175;28;20225;-69
2022/11/21 00:28:13;;;;;;;0.10;0.10;;;;;;;;;;1760762;28;20257;-69
2022/11/21 00:29:05;;;;;;;0.20;0.20;;;;;;;;;;1761093;28;20192;-69
2022/11/21 00:29:57;;;;;;;0.30;0.30;;;;;;;;;;1761180;28;20268;-69
2022/11/21 00:30:48;;;;;;;0.10;0.10;;;;;;;;;;1761142;28;20291;-69
2022/11/21 00:31:40;;;;;;;0.20;0.20;;;;;;;;;;1759652;28;20200;-69
2022/11/21 00:32:31;;;;;;;0.10;0.10;;;;;;;;;;1756233;28;20205;-70
2022/11/21 00:33:23;;;;;;;0.10;0.10;;;;;;;;;;1758904;28;20228;-70
2022/11/21 00:34:15;;;;;;;0.00;0.00;;;;;;;;;;1760886;28;20262;-70
2022/11/21 00:35:07;;;;;;;0.13;0.13;;;;;;;;;;1755593;28;20204;-70
2022/11/21 00:35:58;;;;;;;0.00;0.00;;;;;;;;;;1754137;28;20209;-69
2022/11/21 00:36:50;;;;;;;0.00;0.00;;;;;;;;;;1759537;28;20200;-69
2022/11/21 00:37:42;;;;;;;0.10;0.10;;;;;;;;;;1761214;28;20205;-69
2022/11/21 00:38:34;;;;;;;0.10;0.10;;;;;;;;;;1760769;28;20205;-70
2022/11/21 00:39:26;;;;;;;0.17;0.17;;;;;;;;;;1761430;28;20518;-69
2022/11/21 00:40:19;;;;;;;0.05;0.05;;;;;;;;;;1761755;28;20205;-68
2022/11/21 00:41:10;;;;;;;0.20;0.20;;;;;;;;;;1761532;28;20541;-69
2022/11/21 00:42:02;;;;;;;0.20;0.20;;;;;;;;;;1760887;28;20204;-69
2022/11/21 00:42:53;;;;;;;0.10;0.10;;;;;;;;;;1761652;28;20201;-69
2022/11/21 00:43:45;;;;;;;0.20;0.20;;;;;;;;;;1761037;28;20712;-69
2022/11/21 00:44:36;;;;;;;0.10;0.10;;;;;;;;;;1761102;28;20200;-69
2022/11/21 00:45:28;;;;;;;0.10;0.10;;;;;;;;;;1761110;28;20283;-69
2022/11/21 00:46:19;;;;;;;0.10;0.10;;;;;;;;;;1761333;28;20241;-69
2022/11/21 00:47:11;;;;;;;0.10;0.10;;;;;;;;;;1760209;28;20274;-69
2022/11/21 00:48:03;;;;;;;0.10;0.10;;;;;;;;;;1761278;28;20209;-69
2022/11/21 00:48:55;;;;;;;0.03;0.03;;;;;;;;;;1760682;28;20212;-70
2022/11/21 00:49:46;;;;;;;0.00;0.00;;;;;;;;;;1761137;28;20212;-69
2022/11/21 00:50:38;;;;;;;0.08;0.08;;;;;;;;;;1761006;28;20201;-69
2022/11/21 00:51:30;;;;;;;0.25;0.25;;;;;;;;;;1760703;28;20225;-71
2022/11/21 00:52:21;;;;;;;0.10;0.10;;;;;;;;;;1760776;28;20213;-69
2022/11/21 00:53:13;;;;;;;0.10;0.10;;;;;;;;;;1760727;28;20193;-69
2022/11/21 00:54:04;;;;;;;0.10;0.10;;;;;;;;;;1761275;28;20205;-69
2022/11/21 00:54:58;;;;;;;0.20;0.20;;;;;;;;;;1761083;28;20230;-69
2022/11/21 00:55:49;;;;;;;0.00;0.00;;;;;;;;;;1761292;28;20216;-68
2022/11/21 00:56:41;;;;;;;0.30;0.30;;;;;;;;;;1760993;28;20200;-69
2022/11/21 00:57:32;;;;;;;0.00;0.00;;;;;;;;;;1760695;28;20248;-69
2022/11/21 00:58:24;;;;;;;0.00;0.00;;;;;;;;;;1760913;28;20623;-69
2022/11/21 00:59:15;;;;;;;0.00;0.00;;;;;;;;;;1760904;28;20205;-69
2022/11/21 01:00:08;;;;;;;0.10;0.10;;;;;;;;;;1761241;28;20645;-69
2022/11/21 01:01:03;;;;;;;0.00;0.00;;;;;;;;;;1761001;28;20201;-69
2022/11/21 01:01:55;;;;;;;0.20;0.20;;;;;;;;;;1760031;28;20257;-68
2022/11/21 01:02:46;;;;;;;0.13;0.13;;;;;;;;;;1757872;28;20197;-70
2022/11/21 01:03:39;;;;;;;0.10;0.10;;;;;;;;;;1755205;28;20201;-69
2022/11/21 01:04:30;;;;;;;0.10;0.10;;;;;;;;;;1754811;28;20213;-69
2022/11/21 01:05:22;;;;;;;0.10;0.10;;;;;;;;;;1756041;28;20291;-69
2022/11/21 01:06:14;;;;;;;0.10;0.10;;;;;;;;;;1760880;28;20232;-69
2022/11/21 01:07:06;;;;;;;0.10;0.10;;;;;;;;;;1755372;28;20545;-69
2022/11/21 01:07:57;;;;;;;0.00;0.00;;;;;;;;;;1753694;28;20635;-69
2022/11/21 01:08:49;;;;;;;0.10;0.10;;;;;;;;;;1759718;28;20581;-69
2022/11/21 01:09:41;;;;;;;0.20;0.20;;;;;;;;;;1761179;28;20265;-69
2022/11/21 01:10:35;;;;;;;0.10;0.10;;;;;;;;;;1761196;28;20265;-69
2022/11/21 01:11:27;;;;;;;0.10;0.10;;;;;;;;;;1761134;28;20500;-70
2022/11/21 01:12:19;;;;;;;0.20;0.20;;;;;;;;;;1760533;28;20219;-70
2022/11/21 01:13:10;;;;;;;0.10;0.10;;;;;;;;;;1760610;28;20262;-69
2022/11/21 01:14:02;;;;;;;0.10;0.10;;;;;;;;;;1760792;28;20247;-69
2022/11/21 01:14:53;;;;;;;0.20;0.20;;;;;;;;;;1761046;28;20542;-69
2022/11/21 01:15:45;;;;;;;0.08;0.08;;;;;;;;;;1761374;28;20201;-69
2022/11/21 01:16:36;;;;;;;0.10;0.10;;;;;;;;;;1760627;28;20219;-69
2022/11/21 01:17:28;;;;;;;0.00;0.00;;;;;;;;;;1761198;28;20424;-69
2022/11/21 01:18:20;;;;;;;0.10;0.10;;;;;;;;;;1760456;28;20630;-69
2022/11/21 01:19:12;;;;;;;0.20;0.20;;;;;;;;;;1761195;28;20621;-69
2022/11/21 01:20:04;;;;;;;0.20;0.20;;;;;;;;;;1761110;28;20197;-69
2022/11/21 01:20:59;;;;;;;0.10;0.10;;;;;;;;;;1761159;28;20270;-69
2022/11/21 01:21:50;;;;;;;0.10;0.10;;;;;;;;;;1754437;28;20252;-69
2022/11/21 01:22:42;;;;;;;0.20;0.20;;;;;;;;;;1758339;28;20235;-69
2022/11/21 01:23:34;;;;;;;0.00;0.00;;;;;;;;;;1760581;28;20593;-69
2022/11/21 01:24:27;;;;;;;0.10;0.10;;;;;;;;;;1760763;28;20518;-69
2022/11/21 01:25:18;;;;;;;0.17;0.17;;;;;;;;;;1761094;28;20674;-69
2022/11/21 01:26:12;;;;;;;0.20;0.20;;;;;;;;;;1761080;28;20570;-70
2022/11/21 01:27:03;;;;;;;0.10;0.10;;;;;;;;;;1760505;28;20205;-70
2022/11/21 01:27:55;;;;;;;0.00;0.00;;;;;;;;;;1761117;28;20204;-70
2022/11/21 01:28:46;;;;;;;0.10;0.10;;;;;;;;;;1760490;28;20200;-70
2022/11/21 01:29:38;;;;;;;0.10;0.10;;;;;;;;;;1761179;28;20208;-69
2022/11/21 01:30:29;;;;;;;0.10;0.10;;;;;;;;;;1760980;28;20209;-69
2022/11/21 01:31:22;;;;;;;0.10;0.10;;;;;;;;;;1761027;28;20573;-69
2022/11/21 01:32:13;;;;;;;0.10;0.10;;;;;;;;;;1759975;28;20651;-70
2022/11/21 01:33:05;;;;;;;0.20;0.20;;;;;;;;;;1755382;28;20586;-70
2022/11/21 01:33:57;;;;;;;0.10;0.10;;;;;;;;;;1757407;28;20197;-70
2022/11/21 01:34:49;;;;;;;0.10;0.10;;;;;;;;;;1760415;28;20251;-70
2022/11/21 01:35:40;;;;;;;0.10;0.10;;;;;;;;;;1761209;28;20216;-70
2022/11/21 01:36:33;;;;;;;0.00;0.00;;;;;;;;;;1760874;28;20201;-69
2022/11/21 01:37:24;;;;;;;0.10;0.10;;;;;;;;;;1760784;28;20500;-69
2022/11/21 01:38:16;;;;;;;0.03;0.03;;;;;;;;;;1760710;28;20227;-69
2022/11/21 01:39:08;;;;;;;0.00;0.00;;;;;;;;;;1760551;28;20681;-69
2022/11/21 01:40:00;;;;;;;0.00;0.00;;;;;;;;;;1760836;28;20205;-69
2022/11/21 01:40:51;;;;;;;0.00;0.00;;;;;;;;;;1761315;28;20830;-69
2022/11/21 01:41:45;;;;;;;0.10;0.10;;;;;;;;;;1760422;28;20238;-69
2022/11/21 01:42:44;;;;;;;0.20;0.20;;;;;;;;;;1760818;28;20208;-69
2022/11/21 01:43:36;;;;;;;0.05;0.05;;;;;;;;;;1760600;28;20243;-70
2022/11/21 01:44:42;;;;;;;0.20;0.20;;;;;;;;;;1760959;28;20205;-69
2022/11/21 01:45:53;;;;;;;0.15;0.15;;;;;;;;;;1760790;28;20269;-69
2022/11/21 01:46:45;;;;;;;0.10;0.10;;;;;;;;;;1760451;28;20205;-69
2022/11/21 01:47:37;;;;;;;0.10;0.10;;;;;;;;;;1760662;28;20246;-69
2022/11/21 01:48:32;;;;;;;0.20;0.20;;;;;;;;;;1760531;28;20262;-69
2022/11/21 01:49:25;;;;;;;0.10;0.10;;;;;;;;;;1760534;28;20623;-69
2022/11/21 01:50:16;;;;;;;0.00;0.00;;;;;;;;;;1761194;28;20314;-69
2022/11/21 01:51:11;;;;;;;0.05;0.05;;;;;;;;;;1761146;28;20231;-69
2022/11/21 01:52:03;;;;;;;0.20;0.20;;;;;;;;;;1760189;28;20216;-69
2022/11/21 01:52:55;;;;;;;0.10;0.10;;;;;;;;;;1760705;28;20316;-69
2022/11/21 01:53:47;;;;;;;0.10;0.10;;;;;;;;;;1760592;28;20290;-69
2022/11/21 01:54:41;;;;;;;0.03;0.03;;;;;;;;;;1761008;28;20567;-69
2022/11/21 01:55:32;;;;;;;0.08;0.08;;;;;;;;;;1760922;28;20205;-69
2022/11/21 01:56:25;;;;;;;0.10;0.10;;;;;;;;;;1761050;28;20523;-69
2022/11/21 01:57:19;;;;;;;0.30;0.30;;;;;;;;;;1760191;28;20201;-69
2022/11/21 01:58:11;;;;;;;0.17;0.17;;;;;;;;;;1760663;28;20229;-69
2022/11/21 01:59:03;;;;;;;0.00;0.00;;;;;;;;;;1760933;28;20237;-69
2022/11/21 01:59:58;;;;;;;0.10;0.10;;;;;;;;;;1760398;28;20205;-69
2022/11/21 02:00:50;;;;;;;0.00;0.00;;;;;;;;;;1761217;28;20535;-70
2022/11/21 02:01:43;;;;;;;0.10;0.10;;;;;;;;;;1760564;28;20205;-69
2022/11/21 02:02:36;;;;;;;0.10;0.10;;;;;;;;;;1759839;28;20197;-69
2022/11/21 02:03:29;;;;;;;0.10;0.10;;;;;;;;;;1754990;28;20205;-70
2022/11/21 02:04:22;;;;;;;0.10;0.10;;;;;;;;;;1762140;28;20209;-70
2022/11/21 02:05:15;;;;;;;0.10;0.10;;;;;;;;;;1757313;28;20200;-69
2022/11/21 02:06:07;;;;;;;0.10;0.10;;;;;;;;;;1754970;28;20255;-69
2022/11/21 02:07:00;;;;;;;0.00;0.00;;;;;;;;;;1759663;28;20209;-69
2022/11/21 02:07:52;;;;;;;0.00;0.00;;;;;;;;;;1762129;28;20535;-69
2022/11/21 02:08:45;;;;;;;0.10;0.10;;;;;;;;;;1761800;28;20284;-69
2022/11/21 02:09:39;;;;;;;0.00;0.00;;;;;;;;;;1762295;28;20304;-69
2022/11/21 02:10:31;;;;;;;0.10;0.10;;;;;;;;;;1761801;28;20209;-69
2022/11/21 02:11:26;;;;;;;0.00;0.00;;;;;;;;;;1762289;28;20519;-69
2022/11/21 02:12:24;;;;;;;0.10;0.10;;;;;;;;;;1761537;28;20197;-70
2022/11/21 02:13:15;;;;;;;0.10;0.10;;;;;;;;;;1762041;28;20186;-69
2022/11/21 02:14:07;;;;;;;0.10;0.10;;;;;;;;;;1762192;28;20212;-69
2022/11/21 02:14:58;;;;;;;0.10;0.10;;;;;;;;;;1761596;28;20220;-69
2022/11/21 02:15:51;;;;;;;0.00;0.00;;;;;;;;;;1762324;28;20200;-69
2022/11/21 02:16:42;;;;;;;0.10;0.10;;;;;;;;;;1761796;28;20219;-68
2022/11/21 02:17:34;;;;;;;0.10;0.10;;;;;;;;;;1762088;28;20333;-68
2022/11/21 02:18:25;;;;;;;0.00;0.00;;;;;;;;;;1761581;28;20201;-68
2022/11/21 02:19:21;;;;;;;0.10;0.10;;;;;;;;;;1762350;28;20240;-68
2022/11/21 02:20:14;;;;;;;0.10;0.10;;;;;;;;;;1762484;28;20197;-68
2022/11/21 02:21:10;;;;;;;0.20;0.20;;;;;;;;;;1761815;28;20207;-69
2022/11/21 02:22:04;;;;;;;0.05;0.05;;;;;;;;;;1761640;28;20212;-69
2022/11/21 02:23:01;;;;;;;0.10;0.10;;;;;;;;;;1761812;28;20224;-69
2022/11/21 02:23:57;;;;;;;0.20;0.20;;;;;;;;;;1761884;28;20204;-69
2022/11/21 02:24:57;;;;;;;0.10;0.10;;;;;;;;;;1761917;28;20189;-69
2022/11/21 02:25:50;;;;;;;0.10;0.10;;;;;;;;;;1762247;28;20201;-69
2022/11/21 02:26:42;;;;;;;0.10;0.10;;;;;;;;;;1761644;28;20287;-69
2022/11/21 02:27:33;;;;;;;0.10;0.10;;;;;;;;;;1762100;28;20209;-69
2022/11/21 02:28:25;;;;;;;0.10;0.10;;;;;;;;;;1761777;28;20204;-70
2022/11/21 02:29:16;;;;;;;0.08;0.08;;;;;;;;;;1762062;28;20212;-69
2022/11/21 02:30:10;;;;;;;0.10;0.10;;;;;;;;;;1762439;28;20266;-69
2022/11/21 02:31:01;;;;;;;0.13;0.13;;;;;;;;;;1754992;28;20206;-69
2022/11/21 02:31:53;;;;;;;0.00;0.00;;;;;;;;;;1760759;28;20557;-69
2022/11/21 02:32:45;;;;;;;0.00;0.00;;;;;;;;;;1759311;28;20597;-70
2022/11/21 02:33:38;;;;;;;0.05;0.05;;;;;;;;;;1756166;28;20205;-70
2022/11/21 02:34:29;;;;;;;0.17;0.17;;;;;;;;;;1762015;28;20209;-69
2022/11/21 02:35:21;;;;;;;0.10;0.10;;;;;;;;;;1762099;28;20197;-69
2022/11/21 02:36:34;;;;;;;0.10;0.10;;;;;;;;;;1762073;28;20205;-69
2022/11/21 02:37:26;;;;;;;0.10;0.10;;;;;;;;;;1761790;28;20649;-69
2022/11/21 02:38:20;;;;;;;0.10;0.10;;;;;;;;;;1761757;28;20193;-69
2022/11/21 02:39:15;;;;;;;0.17;0.17;;;;;;;;;;1761973;28;20201;-69
2022/11/21 02:40:09;;;;;;;0.00;0.00;;;;;;;;;;1762195;28;20197;-69
2022/11/21 02:41:05;;;;;;;0.10;0.10;;;;;;;;;;1762071;28;20240;-69
2022/11/21 02:41:59;;;;;;;0.10;0.10;;;;;;;;;;1761010;28;20638;-69
2022/11/21 02:42:57;;;;;;;0.20;0.20;;;;;;;;;;1761997;28;20201;-69
2022/11/21 02:43:50;;;;;;;0.10;0.10;;;;;;;;;;1761433;28;20212;-69
2022/11/21 02:44:46;;;;;;;0.00;0.00;;;;;;;;;;1762039;28;20648;-69
2022/11/21 02:45:38;;;;;;;0.10;0.10;;;;;;;;;;1761908;28;20205;-69
2022/11/21 02:46:30;;;;;;;0.10;0.10;;;;;;;;;;1761653;28;20283;-69
2022/11/21 02:47:22;;;;;;;0.25;0.25;;;;;;;;;;1761563;28;20239;-68
2022/11/21 02:48:14;;;;;;;0.10;0.10;;;;;;;;;;1761589;28;20267;-69
2022/11/21 02:49:06;;;;;;;0.10;0.10;;;;;;;;;;1761768;28;20196;-69
2022/11/21 02:50:04;;;;;;;0.13;0.13;;;;;;;;;;1761662;28;20208;-68
2022/11/21 02:50:55;;;;;;;0.10;0.10;;;;;;;;;;1762034;28;20228;-68
2022/11/21 02:51:48;;;;;;;0.10;0.10;;;;;;;;;;1761415;28;20231;-69
2022/11/21 02:52:39;;;;;;;0.10;0.10;;;;;;;;;;1761611;28;20220;-68
2022/11/21 02:53:31;;;;;;;0.10;0.10;;;;;;;;;;1761801;28;20209;-69
2022/11/21 02:54:22;;;;;;;0.10;0.10;;;;;;;;;;1761720;28;20204;-69
2022/11/21 02:55:15;;;;;;;0.00;0.00;;;;;;;;;;1762100;28;20524;-69
2022/11/21 02:56:07;;;;;;;0.10;0.10;;;;;;;;;;1761812;28;20686;-69
2022/11/21 02:56:59;;;;;;;0.00;0.00;;;;;;;;;;1761834;28;20296;-69
2022/11/21 02:57:50;;;;;;;0.00;0.00;;;;;;;;;;1761378;28;20621;-69
2022/11/21 02:58:42;;;;;;;0.10;0.10;;;;;;;;;;1761397;28;20204;-69
2022/11/21 02:59:33;;;;;;;0.20;0.20;;;;;;;;;;1762026;28;20220;-69
2022/11/21 03:00:25;;;;;;;0.10;0.10;;;;;;;;;;1761888;28;20314;-69
2022/11/21 03:01:16;;;;;;;0.10;0.10;;;;;;;;;;1761948;28;20225;-69
2022/11/21 03:02:09;;;;;;;0.10;0.10;;;;;;;;;;1757272;28;20259;-69
2022/11/21 03:03:00;;;;;;;0.00;0.00;;;;;;;;;;1759549;28;20672;-69
2022/11/21 03:03:52;;;;;;;0.10;0.10;;;;;;;;;;1759838;28;20257;-69
2022/11/21 03:04:44;;;;;;;0.30;0.30;;;;;;;;;;1761883;28;20232;-69
2022/11/21 03:05:36;;;;;;;0.00;0.00;;;;;;;;;;1756898;28;20213;-69
2022/11/21 03:06:27;;;;;;;0.00;0.00;;;;;;;;;;1754677;28;20236;-69
2022/11/21 03:07:19;;;;;;;0.10;0.10;;;;;;;;;;1754452;28;20231;-69
2022/11/21 03:08:10;;;;;;;0.10;0.10;;;;;;;;;;1754186;28;20222;-69
2022/11/21 03:09:02;;;;;;;0.20;0.20;;;;;;;;;;1756741;28;20649;-69
2022/11/21 03:09:54;;;;;;;0.30;0.30;;;;;;;;;;1761862;28;20209;-69
2022/11/21 03:10:47;;;;;;;0.20;0.20;;;;;;;;;;1762099;28;20570;-69
2022/11/21 03:11:38;;;;;;;0.10;0.10;;;;;;;;;;1761599;28;20205;-69
2022/11/21 03:12:30;;;;;;;0.10;0.10;;;;;;;;;;1761619;28;20204;-69
2022/11/21 03:13:21;;;;;;;0.05;0.05;;;;;;;;;;1759253;28;20205;-68
2022/11/21 03:14:13;;;;;;;0.15;0.15;;;;;;;;;;1754971;28;20194;-69
2022/11/21 03:15:05;;;;;;;0.00;0.00;;;;;;;;;;1754865;28;20220;-70
2022/11/21 03:15:59;;;;;;;0.10;0.10;;;;;;;;;;1754907;28;20211;-70
2022/11/21 03:16:50;;;;;;;0.15;0.15;;;;;;;;;;1754386;28;20758;-70
2022/11/21 03:17:43;;;;;;;0.13;0.13;;;;;;;;;;1754979;28;20205;-68
2022/11/21 03:18:34;;;;;;;0.20;0.20;;;;;;;;;;1756630;28;20208;-69
2022/11/21 03:19:26;;;;;;;0.10;0.10;;;;;;;;;;1760937;28;20201;-69
2022/11/21 03:20:17;;;;;;;0.10;0.10;;;;;;;;;;1761875;28;20216;-69
2022/11/21 03:21:09;;;;;;;0.17;0.17;;;;;;;;;;1755637;28;20202;-68
2022/11/21 03:22:00;;;;;;;0.13;0.13;;;;;;;;;;1759053;28;20201;-69
2022/11/21 03:22:53;;;;;;;0.10;0.10;;;;;;;;;;1761386;28;20241;-69
2022/11/21 03:23:44;;;;;;;0.00;0.00;;;;;;;;;;1761518;28;20213;-69
2022/11/21 03:24:36;;;;;;;0.00;0.00;;;;;;;;;;1761464;28;20235;-69
2022/11/21 03:25:27;;;;;;;0.10;0.10;;;;;;;;;;1762557;27;20200;-69
2022/11/21 03:26:21;;;;;;;0.10;0.10;;;;;;;;;;1762030;28;20207;-69
2022/11/21 03:27:12;;;;;;;0.00;0.00;;;;;;;;;;1761131;28;20201;-69
2022/11/21 03:28:04;;;;;;;0.00;0.00;;;;;;;;;;1761793;28;20288;-69
2022/11/21 03:28:55;;;;;;;0.00;0.00;;;;;;;;;;1761241;28;20620;-69
2022/11/21 03:29:47;;;;;;;0.00;0.00;;;;;;;;;;1761789;28;20568;-68
2022/11/21 03:30:38;;;;;;;0.10;0.10;;;;;;;;;;1761940;28;20208;-69
2022/11/21 03:31:31;;;;;;;0.00;0.00;;;;;;;;;;1761545;28;20304;-69
2022/11/21 03:32:22;;;;;;;0.00;0.00;;;;;;;;;;1760984;28;20209;-69
2022/11/21 03:33:14;;;;;;;0.00;0.00;;;;;;;;;;1761397;28;20193;-69
2022/11/21 03:34:05;;;;;;;0.10;0.10;;;;;;;;;;1761525;28;20622;-69
2022/11/21 03:34:57;;;;;;;0.00;0.00;;;;;;;;;;1760933;28;20192;-69
2022/11/21 03:35:48;;;;;;;0.10;0.10;;;;;;;;;;1761945;28;20243;-70
2022/11/21 03:36:40;;;;;;;0.00;0.00;;;;;;;;;;1761482;28;20205;-68
2022/11/21 03:37:31;;;;;;;0.15;0.15;;;;;;;;;;1761363;28;20242;-68
2022/11/21 03:38:23;;;;;;;0.00;0.00;;;;;;;;;;1761319;28;20559;-68
2022/11/21 03:39:14;;;;;;;0.00;0.00;;;;;;;;;;1761519;28;20232;-68
2022/11/21 03:40:07;;;;;;;0.00;0.00;;;;;;;;;;1761608;28;20193;-68
2022/11/21 03:41:02;;;;;;;0.17;0.17;;;;;;;;;;1761830;28;20583;-69
2022/11/21 03:41:56;;;;;;;0.00;0.00;;;;;;;;;;1761297;28;20209;-69
2022/11/21 03:42:47;;;;;;;0.08;0.08;;;;;;;;;;1761719;28;20542;-68
2022/11/21 03:43:39;;;;;;;0.20;0.20;;;;;;;;;;1761222;28;20220;-69
2022/11/21 03:44:30;;;;;;;0.30;0.30;;;;;;;;;;1761674;28;20205;-69
2022/11/21 03:45:22;;;;;;;0.20;0.20;;;;;;;;;;1761264;28;20468;-69
2022/11/21 03:46:13;;;;;;;0.28;0.28;;;;;;;;;;1761520;28;20654;-69
2022/11/21 03:47:05;;;;;;;0.10;0.10;;;;;;;;;;1761353;28;20193;-69
2022/11/21 03:47:56;;;;;;;0.10;0.10;;;;;;;;;;1761113;28;20201;-69
2022/11/21 03:48:48;;;;;;;0.00;0.00;;;;;;;;;;1761393;28;20220;-69
2022/11/21 03:49:39;;;;;;;0.00;0.00;;;;;;;;;;1754473;28;20224;-69
2022/11/21 03:50:32;;;;;;;0.00;0.00;;;;;;;;;;1760614;28;20212;-69
2022/11/21 03:51:23;;;;;;;0.08;0.08;;;;;;;;;;1761630;28;20219;-69
2022/11/21 03:52:15;;;;;;;0.08;0.08;;;;;;;;;;1760607;28;20674;-69
2022/11/21 03:53:06;;;;;;;0.10;0.10;;;;;;;;;;1761669;28;20197;-69
2022/11/21 03:53:58;;;;;;;0.10;0.10;;;;;;;;;;1761130;28;20296;-69
2022/11/21 03:54:49;;;;;;;0.00;0.00;;;;;;;;;;1761333;28;20205;-69
2022/11/21 03:55:43;;;;;;;0.10;0.10;;;;;;;;;;1760407;28;20209;-69
2022/11/21 03:56:34;;;;;;;0.22;0.22;;;;;;;;;;1760451;28;20559;-69
2022/11/21 03:57:28;;;;;;;0.00;0.00;;;;;;;;;;1757408;28;20237;-69
2022/11/21 03:58:19;;;;;;;0.10;0.10;;;;;;;;;;1755904;28;20201;-69
2022/11/21 03:59:11;;;;;;;0.00;0.00;;;;;;;;;;1758115;28;20279;-69
2022/11/21 04:00:03;;;;;;;0.00;0.00;;;;;;;;;;1759148;28;20201;-69
2022/11/21 04:00:55;;;;;;;0.10;0.10;;;;;;;;;;1762378;27;20205;-69
2022/11/21 04:01:47;;;;;;;0.20;0.20;;;;;;;;;;1761053;28;20538;-69
2022/11/21 04:02:39;;;;;;;0.10;0.10;;;;;;;;;;1758977;28;20623;-69
2022/11/21 04:03:30;;;;;;;0.20;0.20;;;;;;;;;;1756993;28;20484;-69
2022/11/21 04:04:22;;;;;;;0.00;0.00;;;;;;;;;;1761151;28;20193;-69
2022/11/21 04:05:13;;;;;;;0.00;0.00;;;;;;;;;;1755051;28;20229;-69
2022/11/21 04:06:05;;;;;;;0.10;0.10;;;;;;;;;;1754084;28;20213;-68
2022/11/21 04:06:56;;;;;;;0.13;0.13;;;;;;;;;;1754109;28;20578;-68
2022/11/21 04:07:48;;;;;;;0.10;0.10;;;;;;;;;;1754375;28;20901;-69
2022/11/21 04:08:40;;;;;;;0.20;0.20;;;;;;;;;;1753774;28;20626;-68
2022/11/21 04:09:32;;;;;;;0.10;0.10;;;;;;;;;;1754377;28;20642;-68
2022/11/21 04:10:23;;;;;;;0.20;0.20;;;;;;;;;;1754283;28;20177;-68
2022/11/21 04:11:15;;;;;;;0.10;0.10;;;;;;;;;;1754132;28;20221;-69
2022/11/21 04:12:06;;;;;;;0.10;0.10;;;;;;;;;;1753840;28;20216;-69
2022/11/21 04:13:00;;;;;;;0.20;0.20;;;;;;;;;;1754187;28;20205;-69
2022/11/21 04:13:51;;;;;;;0.10;0.10;;;;;;;;;;1760171;28;20243;-69
2022/11/21 04:14:43;;;;;;;0.08;0.08;;;;;;;;;;1760619;28;20587;-69
2022/11/21 04:15:34;;;;;;;0.10;0.10;;;;;;;;;;1754918;28;20571;-69
2022/11/21 04:16:26;;;;;;;0.20;0.20;;;;;;;;;;1754281;28;20221;-69
2022/11/21 04:17:17;;;;;;;0.10;0.10;;;;;;;;;;1753727;28;20234;-69
2022/11/21 04:18:09;;;;;;;0.20;0.20;;;;;;;;;;1754369;28;20262;-69
2022/11/21 04:19:00;;;;;;;0.13;0.13;;;;;;;;;;1753997;28;20260;-69
2022/11/21 04:19:52;;;;;;;0.00;0.00;;;;;;;;;;1754313;28;20691;-69
2022/11/21 04:20:44;;;;;;;0.00;0.00;;;;;;;;;;1760559;28;20247;-69
2022/11/21 04:21:36;;;;;;;0.10;0.10;;;;;;;;;;1757178;28;20212;-69
2022/11/21 04:22:27;;;;;;;0.20;0.20;;;;;;;;;;1756567;28;20216;-68
2022/11/21 04:23:19;;;;;;;0.10;0.10;;;;;;;;;;1760765;28;20200;-68
2022/11/21 04:24:10;;;;;;;0.10;0.10;;;;;;;;;;1761341;28;20700;-68
2022/11/21 04:25:05;;;;;;;0.10;0.10;;;;;;;;;;1760429;28;20197;-68
2022/11/21 04:25:56;;;;;;;0.10;0.10;;;;;;;;;;1761437;28;20197;-69
2022/11/21 04:26:48;;;;;;;0.10;0.10;;;;;;;;;;1760718;28;20231;-69
2022/11/21 04:27:39;;;;;;;0.00;0.00;;;;;;;;;;1761068;28;20216;-69
2022/11/21 04:28:33;;;;;;;0.20;0.20;;;;;;;;;;1760960;28;20552;-69
2022/11/21 04:29:24;;;;;;;0.00;0.00;;;;;;;;;;1761109;28;20224;-69
2022/11/21 04:30:16;;;;;;;0.08;0.08;;;;;;;;;;1761346;28;20224;-69
2022/11/21 04:31:08;;;;;;;0.10;0.10;;;;;;;;;;1761158;28;20572;-69
2022/11/21 04:32:00;;;;;;;0.10;0.10;;;;;;;;;;1759960;28;20201;-69
2022/11/21 04:32:51;;;;;;;0.10;0.10;;;;;;;;;;1757583;28;20217;-69
2022/11/21 04:33:43;;;;;;;0.00;0.00;;;;;;;;;;1758319;28;20239;-69
2022/11/21 04:34:34;;;;;;;0.10;0.10;;;;;;;;;;1757994;28;20228;-69
2022/11/21 04:35:27;;;;;;;0.10;0.10;;;;;;;;;;1753379;28;20197;-69
2022/11/21 04:36:18;;;;;;;0.03;0.03;;;;;;;;;;1754021;28;20623;-69
2022/11/21 04:37:10;;;;;;;0.20;0.20;;;;;;;;;;1759714;28;20499;-69
2022/11/21 04:38:01;;;;;;;0.00;0.00;;;;;;;;;;1760686;28;20208;-69
2022/11/21 04:38:53;;;;;;;0.10;0.10;;;;;;;;;;1757384;28;20185;-69
2022/11/21 04:39:44;;;;;;;0.10;0.10;;;;;;;;;;1759171;28;20334;-69
2022/11/21 04:40:35;;;;;;;0.00;0.00;;;;;;;;;;1760794;28;20827;-69
2022/11/21 04:41:27;;;;;;;0.00;0.00;;;;;;;;;;1761165;28;20193;-69
2022/11/21 04:42:18;;;;;;;0.03;0.03;;;;;;;;;;1760608;28;20250;-69
2022/11/21 04:43:09;;;;;;;0.00;0.00;;;;;;;;;;1760818;28;20200;-69
2022/11/21 04:44:03;;;;;;;0.10;0.10;;;;;;;;;;1760848;28;20204;-69
2022/11/21 04:44:54;;;;;;;0.20;0.20;;;;;;;;;;1760764;28;20236;-69
2022/11/21 04:45:45;;;;;;;0.10;0.10;;;;;;;;;;1761395;28;20507;-69
2022/11/21 04:46:37;;;;;;;0.10;0.10;;;;;;;;;;1760822;28;20215;-69
2022/11/21 04:47:28;;;;;;;0.15;0.15;;;;;;;;;;1761050;28;20232;-69
2022/11/21 04:48:20;;;;;;;0.10;0.10;;;;;;;;;;1760815;28;20247;-69
2022/11/21 04:49:11;;;;;;;0.20;0.20;;;;;;;;;;1757533;28;20205;-69
2022/11/21 04:50:04;;;;;;;0.10;0.10;;;;;;;;;;1753861;28;20194;-69
2022/11/21 04:50:55;;;;;;;0.20;0.20;;;;;;;;;;1753912;28;20213;-68
2022/11/21 04:51:47;;;;;;;0.00;0.00;;;;;;;;;;1756309;28;20193;-68
2022/11/21 04:52:38;;;;;;;0.10;0.10;;;;;;;;;;1761018;28;20212;-68
2022/11/21 04:53:30;;;;;;;0.10;0.10;;;;;;;;;;1760448;28;20534;-68
2022/11/21 04:54:22;;;;;;;0.10;0.10;;;;;;;;;;1761038;28;20197;-68
2022/11/21 04:55:14;;;;;;;0.15;0.15;;;;;;;;;;1761202;28;20686;-68
2022/11/21 04:56:05;;;;;;;0.20;0.20;;;;;;;;;;1761151;28;20234;-69
2022/11/21 04:56:57;;;;;;;0.10;0.10;;;;;;;;;;1760869;28;20200;-69
2022/11/21 04:57:49;;;;;;;0.08;0.08;;;;;;;;;;1760910;28;20239;-69
2022/11/21 04:58:43;;;;;;;0.00;0.00;;;;;;;;;;1760765;28;20212;-69
2022/11/21 04:59:35;;;;;;;0.10;0.10;;;;;;;;;;1761012;28;20212;-69
2022/11/21 05:00:28;;;;;;;0.10;0.10;;;;;;;;;;1761229;28;20217;-69
2022/11/21 05:01:19;;;;;;;0.03;0.03;;;;;;;;;;1760969;28;20225;-68
2022/11/21 05:02:11;;;;;;;0.10;0.10;;;;;;;;;;1758321;28;20208;-68
2022/11/21 05:03:02;;;;;;;0.10;0.10;;;;;;;;;;1755863;28;20198;-68
2022/11/21 05:03:54;;;;;;;0.08;0.08;;;;;;;;;;1757155;28;20253;-68
2022/11/21 05:04:45;;;;;;;0.10;0.10;;;;;;;;;;1758327;28;20220;-68
2022/11/21 05:05:38;;;;;;;0.10;0.10;;;;;;;;;;1760704;28;20236;-69
2022/11/21 05:06:29;;;;;;;0.20;0.20;;;;;;;;;;1761048;28;20233;-69
2022/11/21 05:07:21;;;;;;;0.10;0.10;;;;;;;;;;1760936;28;20440;-69
2022/11/21 05:08:12;;;;;;;0.10;0.10;;;;;;;;;;1761008;28;20254;-69
2022/11/21 05:09:04;;;;;;;0.20;0.20;;;;;;;;;;1760608;28;20293;-69
2022/11/21 05:09:55;;;;;;;0.10;0.10;;;;;;;;;;1760735;28;20205;-69
2022/11/21 05:13:22;;;;;;;0.08;0.08;;;;;;;;;;1761362;28;20495;-69
2022/11/21 05:14:13;;;;;;;0.00;0.00;;;;;;;;;;1760767;28;20228;-69
2022/11/21 05:15:07;;;;;;;0.10;0.10;;;;;;;;;;1761178;28;20240;-69
2022/11/21 05:15:58;;;;;;;0.10;0.10;;;;;;;;;;1760814;28;20205;-68